createdAt,value
2018-12-09T00:00:20.887Z,4.67
2018-12-09T00:02:54.184Z,7.03
2018-12-09T00:05:30.514Z,7.30
2018-12-09T00:08:07.802Z,6.07
2018-12-09T00:10:44.917Z,7.37
2018-12-09T00:13:17.982Z,7.67
2018-12-09T00:15:51.098Z,7.83
2018-12-09T00:18:27.539Z,6.70
2018-12-09T00:21:00.367Z,9.10
2018-12-09T00:23:33.403Z,6.60
2018-12-09T00:26:06.422Z,5.93
2018-12-09T00:28:39.435Z,5.73
2018-12-09T00:31:12.362Z,7.50
2018-12-09T00:33:45.289Z,9.70
2018-12-09T00:36:18.287Z,8.90
2018-12-09T00:38:51.234Z,5.07
2018-12-09T00:41:24.238Z,5.00
2018-12-09T00:43:57.358Z,4.63
2018-12-09T00:46:33.571Z,4.57
2018-12-09T00:49:09.937Z,4.67
2018-12-09T00:51:42.958Z,4.90
2018-12-09T00:54:15.957Z,4.20
2018-12-09T00:56:53.014Z,4.23
2018-12-09T00:59:26.025Z,4.57
2018-12-09T01:01:58.251Z,4.37
2018-12-09T01:04:31.258Z,5.90
2018-12-09T01:07:04.532Z,5.47
2018-12-09T01:09:36.823Z,6.23
2018-12-09T01:12:12.794Z,4.30
2018-12-09T01:14:45.941Z,3.67
2018-12-09T01:17:22.254Z,3.40
2018-12-09T01:19:55.475Z,4.50
2018-12-09T01:22:31.721Z,5.27
2018-12-09T01:25:05.061Z,3.70
2018-12-09T01:27:38.198Z,4.67
2018-12-09T01:30:15.162Z,4.57
2018-12-09T01:32:48.159Z,4.90
2018-12-09T01:35:24.414Z,5.30
2018-12-09T01:37:56.678Z,5.53
2018-12-09T01:40:33.043Z,4.53
2018-12-09T01:43:09.269Z,5.53
2018-12-09T01:45:46.262Z,5.57
2018-12-09T01:48:18.978Z,5.60
2018-12-09T01:50:55.891Z,4.97
2018-12-09T01:54:38.260Z,5.10
2018-12-09T01:57:10.942Z,4.93
2018-12-09T01:59:43.154Z,5.10
2018-12-09T02:02:16.330Z,5.03
2018-12-09T02:04:48.535Z,5.87
2018-12-09T02:07:21.690Z,6.77
2018-12-09T02:09:54.818Z,7.97
2018-12-09T02:12:36.254Z,5.93
2018-12-09T02:15:08.990Z,6.20
2018-12-09T02:17:41.335Z,6.73
2018-12-09T02:20:14.450Z,5.90
2018-12-09T02:22:50.707Z,5.40
2018-12-09T02:25:27.735Z,4.87
2018-12-09T02:28:04.156Z,4.80
2018-12-09T02:30:41.240Z,3.93
2018-12-09T02:33:14.355Z,4.00
2018-12-09T02:35:47.394Z,4.60
2018-12-09T02:38:24.065Z,4.63
2018-12-09T02:41:01.217Z,4.63
2018-12-09T02:43:41.210Z,5.00
2018-12-09T02:46:13.403Z,5.00
2018-12-09T02:48:46.414Z,4.73
2018-12-09T02:51:19.418Z,5.10
2018-12-09T02:53:52.671Z,5.70
2018-12-09T02:56:25.750Z,4.87
2018-12-09T02:58:58.921Z,4.73
2018-12-09T03:01:35.977Z,4.70
2018-12-09T03:04:08.991Z,4.63
2018-12-09T03:06:42.058Z,5.27
2018-12-09T03:09:15.099Z,5.50
2018-12-09T03:11:48.207Z,4.70
2018-12-09T03:14:21.243Z,5.13
2018-12-09T03:16:54.355Z,4.03
2018-12-09T03:19:31.239Z,3.27
2018-12-09T03:22:03.538Z,2.97
2018-12-09T03:24:36.786Z,3.03
2018-12-09T03:27:13.942Z,3.33
2018-12-09T03:29:50.258Z,2.70
2018-12-09T03:32:23.493Z,3.30
2018-12-09T03:34:56.589Z,2.90
2018-12-09T03:37:29.664Z,4.20
2018-12-09T03:40:02.499Z,4.17
2018-12-09T03:42:35.522Z,4.60
2018-12-09T03:45:11.818Z,5.33
2018-12-09T03:47:48.889Z,7.17
2018-12-09T03:50:25.916Z,8.47
2018-12-09T03:53:02.906Z,10.23
2018-12-09T03:55:36.231Z,11.20
2018-12-09T03:58:13.460Z,10.57
2018-12-09T04:00:46.476Z,10.63
2018-12-09T04:03:22.683Z,9.67
2018-12-09T04:05:55.815Z,9.57
2018-12-09T04:08:32.957Z,8.37
2018-12-09T04:11:06.105Z,8.90
2018-12-09T04:13:38.606Z,9.00
2018-12-09T04:16:11.766Z,9.47
2018-12-09T04:18:44.825Z,10.77
2018-12-09T04:26:21.776Z,10.43
2018-12-09T04:28:54.586Z,8.60
2018-12-09T04:31:31.479Z,7.67
2018-12-09T04:34:04.608Z,6.70
2018-12-09T04:36:41.103Z,6.60
2018-12-09T04:39:18.322Z,7.87
2018-12-09T04:41:57.622Z,8.07
2018-12-09T04:44:30.433Z,8.60
2018-12-09T04:47:11.881Z,9.17
2018-12-09T04:49:44.695Z,9.23
2018-12-09T04:52:17.778Z,9.33
2018-12-09T04:54:50.011Z,9.53
2018-12-09T04:57:27.281Z,9.53
2018-12-09T05:00:10.846Z,9.37
2018-12-09T05:02:43.275Z,9.40
2018-12-09T05:05:19.579Z,7.60
2018-12-09T05:07:51.953Z,7.50
2018-12-09T05:10:24.968Z,7.83
2018-12-09T05:12:57.827Z,8.50
2018-12-09T05:15:30.935Z,8.17
2018-12-09T05:18:03.259Z,8.57
2018-12-09T05:20:36.217Z,7.47
2018-12-09T05:23:09.098Z,7.37
2018-12-09T05:25:41.974Z,8.17
2018-12-09T05:28:15.236Z,7.40
2018-12-09T05:30:48.322Z,7.63
2018-12-09T05:33:24.620Z,8.97
2018-12-09T05:36:01.763Z,8.80
2018-12-09T05:38:39.252Z,9.03
2018-12-09T05:41:16.236Z,8.43
2018-12-09T05:43:53.247Z,7.27
2018-12-09T05:46:29.590Z,7.20
2018-12-09T05:49:02.723Z,8.13
2018-12-09T05:51:39.038Z,7.80
2018-12-09T05:54:15.532Z,7.10
2018-12-09T05:56:51.881Z,7.53
2018-12-09T05:59:24.570Z,8.23
2018-12-09T06:03:05.795Z,8.30
2018-12-09T06:05:38.686Z,7.90
2018-12-09T06:08:11.982Z,10.27
2018-12-09T06:10:45.090Z,10.20
2018-12-09T06:13:18.272Z,9.80
2018-12-09T06:15:54.563Z,9.10
2018-12-09T06:18:27.889Z,8.10
2018-12-09T06:21:01.077Z,7.23
2018-12-09T06:23:34.166Z,7.00
2018-12-09T06:26:07.349Z,6.67
2018-12-09T06:28:40.448Z,7.37
2018-12-09T06:31:17.610Z,8.10
2018-12-09T06:33:50.601Z,7.53
2018-12-09T06:36:26.898Z,6.83
2018-12-09T06:39:03.772Z,7.53
2018-12-09T06:41:40.458Z,6.40
2018-12-09T06:44:22.788Z,7.10
2018-12-09T06:46:55.510Z,6.97
2018-12-09T06:49:29.145Z,6.60
2018-12-09T06:52:05.673Z,5.87
2018-12-09T06:54:38.938Z,5.50
2018-12-09T06:57:12.133Z,5.97
2018-12-09T06:59:49.241Z,6.93
2018-12-09T07:02:22.527Z,6.93
2018-12-09T07:04:55.420Z,7.97
2018-12-09T07:07:28.746Z,6.80
2018-12-09T07:10:07.854Z,7.50
2018-12-09T07:12:40.787Z,7.40
2018-12-09T07:15:17.974Z,7.50
2018-12-09T07:17:50.949Z,6.37
2018-12-09T07:20:27.960Z,4.90
2018-12-09T07:23:04.621Z,6.43
2018-12-09T07:25:37.590Z,5.27
2018-12-09T07:33:13.660Z,4.90
2018-12-09T07:35:46.742Z,5.10
2018-12-09T07:38:19.855Z,5.20
2018-12-09T07:40:54.179Z,5.17
2018-12-09T07:43:27.630Z,5.57
2018-12-09T07:46:00.078Z,6.17
2018-12-09T07:48:34.052Z,4.53
2018-12-09T07:51:11.306Z,4.00
2018-12-09T07:53:44.639Z,6.80
2018-12-09T07:56:26.915Z,4.77
2018-12-09T07:59:00.218Z,5.23
2018-12-09T08:01:33.240Z,6.53
2018-12-09T08:04:06.489Z,4.93
2018-12-09T08:06:39.610Z,4.37
2018-12-09T08:09:16.899Z,3.97
2018-12-09T08:11:54.127Z,2.30
2018-12-09T08:14:31.317Z,2.27
2018-12-09T08:17:08.688Z,2.30
2018-12-09T08:19:45.909Z,8.33
2018-12-09T08:22:19.118Z,4.23
2018-12-09T08:24:52.121Z,2.20
2018-12-09T08:27:25.307Z,2.20
2018-12-09T08:30:02.605Z,2.90
2018-12-09T08:32:35.896Z,2.70
2018-12-09T08:35:08.727Z,3.33
2018-12-09T08:37:45.579Z,3.43
2018-12-09T08:40:18.452Z,3.93
2018-12-09T08:42:51.645Z,4.73
2018-12-09T08:45:24.499Z,3.73
2018-12-09T08:47:57.712Z,5.17
2018-12-09T08:50:30.774Z,5.27
2018-12-09T08:53:03.931Z,10.97
2018-12-09T08:55:41.287Z,8.10
2018-12-09T08:58:15.530Z,7.70
2018-12-09T09:00:48.656Z,6.90
2018-12-09T09:03:21.879Z,7.53
2018-12-09T09:05:59.008Z,6.40
2018-12-09T09:08:36.279Z,5.63
2018-12-09T09:11:09.351Z,5.00
2018-12-09T09:13:41.801Z,5.03
2018-12-09T09:16:18.145Z,5.37
2018-12-09T09:18:51.843Z,4.50
2018-12-09T09:21:24.929Z,3.90
2018-12-09T09:23:57.783Z,4.53
2018-12-09T09:26:31.126Z,4.37
2018-12-09T09:29:04.429Z,6.67
2018-12-09T09:31:37.689Z,3.00
2018-12-09T09:39:10.418Z,4.70
2018-12-09T09:41:43.384Z,4.27
2018-12-09T09:44:16.616Z,2.70
2018-12-09T09:46:53.947Z,2.90
2018-12-09T09:49:27.026Z,3.17
2018-12-09T09:52:04.327Z,6.73
2018-12-09T09:54:41.336Z,2.83
2018-12-09T09:57:14.703Z,6.90
2018-12-09T09:59:47.444Z,5.47
2018-12-09T10:02:24.769Z,2.87
2018-12-09T10:04:57.910Z,3.70
2018-12-09T10:07:31.799Z,4.30
2018-12-09T10:10:05.677Z,4.53
2018-12-09T10:12:38.247Z,3.03
2018-12-09T10:15:11.608Z,5.80
2018-12-09T10:17:48.859Z,3.87
2018-12-09T10:20:21.646Z,4.27
2018-12-09T10:22:54.939Z,3.87
2018-12-09T10:25:27.996Z,3.60
2018-12-09T10:28:01.129Z,2.47
2018-12-09T10:30:34.040Z,2.43
2018-12-09T10:33:07.136Z,2.67
2018-12-09T10:35:40.387Z,2.30
2018-12-09T10:38:12.818Z,2.43
2018-12-09T10:40:50.099Z,2.60
2018-12-09T10:43:23.241Z,2.73
2018-12-09T10:45:59.526Z,2.47
2018-12-09T10:48:36.043Z,2.70
2018-12-09T10:51:08.952Z,2.73
2018-12-09T10:53:41.832Z,2.93
2018-12-09T10:56:15.101Z,2.70
2018-12-09T10:58:51.530Z,3.10
2018-12-09T11:01:34.597Z,3.83
2018-12-09T11:04:11.664Z,2.70
2018-12-09T11:06:49.115Z,3.07
2018-12-09T11:09:21.987Z,3.00
2018-12-09T11:11:54.703Z,2.67
2018-12-09T11:14:27.999Z,3.40
2018-12-09T11:17:00.726Z,3.00
2018-12-09T11:19:37.054Z,3.00
2018-12-09T11:22:10.468Z,2.80
2018-12-09T11:24:43.369Z,2.90
2018-12-09T11:27:20.639Z,2.73
2018-12-09T11:29:53.799Z,3.37
2018-12-09T11:32:26.812Z,3.13
2018-12-09T11:35:00.001Z,3.13
2018-12-09T11:37:33.062Z,3.10
2018-12-09T11:40:06.565Z,2.80
2018-12-09T11:42:39.293Z,2.60
2018-12-09T11:45:16.367Z,3.20
2018-12-09T11:47:49.781Z,2.67
2018-12-09T11:50:22.602Z,3.67
2018-12-09T11:52:55.829Z,3.00
2018-12-09T11:55:28.934Z,3.50
2018-12-09T11:58:03.222Z,3.13
2018-12-09T12:00:36.515Z,2.63
2018-12-09T12:03:09.093Z,3.17
2018-12-09T12:05:42.220Z,2.87
2018-12-09T12:08:19.383Z,3.27
2018-12-09T12:10:52.431Z,3.40
2018-12-09T12:13:24.831Z,3.33
2018-12-09T12:16:01.215Z,2.83
2018-12-09T12:18:34.459Z,2.20
2018-12-09T12:21:06.894Z,2.23
2018-12-09T12:23:44.033Z,2.20
2018-12-09T12:26:17.117Z,2.73
2018-12-09T12:28:50.181Z,2.40
2018-12-09T12:31:23.476Z,2.60
2018-12-09T12:33:56.325Z,2.40
2018-12-09T12:36:33.477Z,2.47
2018-12-09T12:39:08.217Z,2.90
2018-12-09T12:41:44.682Z,2.77
2018-12-09T12:44:17.835Z,2.67
2018-12-09T12:46:50.816Z,2.77
2018-12-09T12:49:23.816Z,2.60
2018-12-09T12:51:56.775Z,2.20
2018-12-09T12:54:29.822Z,2.20
2018-12-09T12:57:02.705Z,1.73
2018-12-09T12:59:35.765Z,2.40
2018-12-09T13:02:08.962Z,2.67
2018-12-09T13:04:42.027Z,2.33
2018-12-09T13:07:14.985Z,2.03
2018-12-09T13:09:47.887Z,1.80
2018-12-09T13:12:25.122Z,2.40
2018-12-09T13:14:57.865Z,1.90
2018-12-09T13:17:30.894Z,1.97
2018-12-09T13:20:03.412Z,1.87
2018-12-09T13:22:40.275Z,2.60
2018-12-09T13:25:13.558Z,1.97
2018-12-09T13:27:49.996Z,2.00
2018-12-09T13:30:23.110Z,2.70
2018-12-09T13:33:00.332Z,1.87
2018-12-09T13:35:37.313Z,2.30
2018-12-09T13:38:15.025Z,2.10
2018-12-09T13:40:48.168Z,2.30
2018-12-09T13:43:24.563Z,2.40
2018-12-09T13:46:01.753Z,3.30
2018-12-09T13:48:38.849Z,2.40
2018-12-09T13:51:12.073Z,2.70
2018-12-09T13:53:49.386Z,2.67
2018-12-09T13:56:26.521Z,2.87
2018-12-09T13:58:59.186Z,2.53
2018-12-09T14:01:32.428Z,3.17
2018-12-09T14:04:05.635Z,3.30
2018-12-09T14:06:39.072Z,2.50
2018-12-09T14:09:12.111Z,2.67
2018-12-09T14:11:48.981Z,2.87
2018-12-09T14:14:25.352Z,2.70
2018-12-09T14:16:58.579Z,3.40
2018-12-09T14:19:35.706Z,2.70
2018-12-09T14:22:08.696Z,2.67
2018-12-09T14:24:41.835Z,3.53
2018-12-09T14:27:14.990Z,3.17
2018-12-09T14:29:51.913Z,2.70
2018-12-09T14:32:29.006Z,3.30
2018-12-09T14:35:02.238Z,3.53
2018-12-09T14:37:35.368Z,2.97
2018-12-09T14:40:09.882Z,3.30
2018-12-09T14:42:42.944Z,3.23
2018-12-09T14:45:15.930Z,2.90
2018-12-09T14:47:49.188Z,3.00
2018-12-09T14:50:22.294Z,3.20
2018-12-09T14:52:55.686Z,5.83
2018-12-09T14:55:28.768Z,3.00
2018-12-09T14:58:01.844Z,3.03
2018-12-09T15:00:35.151Z,3.23
2018-12-09T15:03:08.359Z,2.53
2018-12-09T15:05:41.634Z,2.50
2018-12-09T15:08:14.947Z,3.63
2018-12-09T15:10:48.083Z,9.27
2018-12-09T15:13:25.089Z,2.97
2018-12-09T15:15:58.418Z,3.27
2018-12-09T15:18:35.786Z,2.80
2018-12-09T15:21:08.822Z,3.00
2018-12-09T15:23:45.550Z,2.83
2018-12-09T15:26:18.861Z,2.57
2018-12-09T15:28:51.946Z,2.90
2018-12-09T15:31:28.271Z,2.83
2018-12-09T15:34:01.571Z,3.67
2018-12-09T15:36:39.019Z,3.17
2018-12-09T15:39:12.216Z,2.87
2018-12-09T15:41:45.109Z,3.43
2018-12-09T15:44:18.091Z,4.03
2018-12-09T15:46:51.134Z,3.00
2018-12-09T15:49:23.553Z,3.30
2018-12-09T15:51:55.947Z,2.83
2018-12-09T15:54:29.335Z,3.60
2018-12-09T15:57:02.869Z,2.57
2018-12-09T15:59:35.528Z,6.27
2018-12-09T16:02:12.692Z,6.37
2018-12-09T16:04:49.917Z,4.60
2018-12-09T16:07:28.117Z,5.90
2018-12-09T16:10:05.142Z,4.40
2018-12-09T16:12:37.576Z,4.47
2018-12-09T16:15:10.784Z,4.30
2018-12-09T16:17:44.301Z,3.90
2018-12-09T16:20:20.982Z,4.60
2018-12-09T16:22:57.410Z,4.17
2018-12-09T16:25:30.563Z,4.03
2018-12-09T16:28:07.721Z,4.17
2018-12-09T16:30:40.666Z,3.33
2018-12-09T16:33:13.735Z,3.53
2018-12-09T16:35:47.667Z,3.50
2018-12-09T16:38:21.223Z,3.63
2018-12-09T16:40:54.076Z,3.90
2018-12-09T16:43:26.428Z,10.73
2018-12-09T16:45:59.634Z,11.33
2018-12-09T16:48:32.168Z,7.77
2018-12-09T16:51:05.399Z,8.20
2018-12-09T16:53:38.980Z,4.93
2018-12-09T16:56:11.511Z,3.90
2018-12-09T16:58:47.904Z,4.73
2018-12-09T17:01:20.725Z,6.40
2018-12-09T17:03:53.813Z,4.20
2018-12-09T17:06:30.141Z,4.70
2018-12-09T17:09:03.092Z,4.90
2018-12-09T17:11:36.236Z,4.23
2018-12-09T17:14:13.266Z,4.97
2018-12-09T17:16:49.845Z,4.47
2018-12-09T17:19:22.958Z,4.03
2018-12-09T17:21:56.025Z,4.20
2018-12-09T17:24:28.981Z,4.37
2018-12-09T17:27:02.169Z,3.60
2018-12-09T17:29:35.219Z,4.00
2018-12-09T17:32:12.039Z,3.57
2018-12-09T17:34:45.228Z,3.70
2018-12-09T17:37:21.719Z,3.20
2018-12-09T17:39:55.184Z,3.10
2018-12-09T17:42:27.943Z,3.20
2018-12-09T17:45:01.044Z,3.77
2018-12-09T17:47:34.272Z,3.10
2018-12-09T17:52:40.121Z,4.10
2018-12-09T17:55:16.534Z,4.10
2018-12-09T17:57:52.866Z,3.90
2018-12-09T18:00:25.395Z,4.30
2018-12-09T18:02:58.745Z,4.13
2018-12-09T18:05:35.933Z,4.50
2018-12-09T18:08:12.296Z,4.63
2018-12-09T18:10:45.217Z,3.90
2018-12-09T18:13:18.084Z,4.53
2018-12-09T18:15:55.422Z,4.50
2018-12-09T18:18:28.702Z,4.70
2018-12-09T18:21:05.893Z,5.00
2018-12-09T18:23:42.371Z,5.50
2018-12-09T18:26:15.439Z,5.27
2018-12-09T18:28:48.792Z,4.30
2018-12-09T18:31:27.255Z,5.00
2018-12-09T18:34:04.253Z,4.17
2018-12-09T18:36:37.553Z,3.87
2018-12-09T18:39:10.987Z,3.73
2018-12-09T18:41:43.927Z,3.73
2018-12-09T18:44:21.274Z,3.73
2018-12-09T18:46:54.430Z,4.03
2018-12-09T18:49:27.320Z,2.97
2018-12-09T18:54:29.629Z,2.67
2018-12-09T18:57:02.808Z,3.20
2018-12-09T18:59:35.675Z,4.80
2018-12-09T19:02:12.009Z,4.33
2018-12-09T19:04:45.374Z,3.20
2018-12-09T19:07:18.538Z,3.47
2018-12-09T19:09:51.862Z,4.10
2018-12-09T19:12:24.777Z,6.17
2018-12-09T19:15:01.990Z,4.03
2018-12-09T19:17:35.118Z,4.03
2018-12-09T19:20:08.023Z,4.40
2018-12-09T19:22:41.204Z,4.40
2018-12-09T19:25:17.731Z,5.00
2018-12-09T19:27:50.494Z,3.70
2018-12-09T19:30:23.701Z,3.73
2018-12-09T19:32:56.068Z,2.80
2018-12-09T19:35:29.278Z,2.47
2018-12-09T19:38:01.612Z,2.83
2018-12-09T19:40:34.796Z,3.17
2018-12-09T19:43:08.183Z,2.40
2018-12-09T19:45:40.969Z,3.60
2018-12-09T19:48:14.125Z,2.70
2018-12-09T19:50:47.043Z,3.27
2018-12-09T19:53:20.194Z,4.20
2018-12-09T19:55:59.545Z,4.93
2018-12-09T19:58:32.649Z,9.67
2018-12-09T20:01:05.889Z,11.23
2018-12-09T20:03:39.097Z,6.50
2018-12-09T20:06:16.370Z,5.83
2018-12-09T20:08:48.852Z,4.37
2018-12-09T20:11:21.887Z,6.07
2018-12-09T20:13:55.166Z,2.80
2018-12-09T20:16:32.137Z,4.10
2018-12-09T20:19:04.714Z,4.50
2018-12-09T20:21:37.793Z,4.77
2018-12-09T20:24:10.859Z,3.50
2018-12-09T20:26:44.299Z,3.47
2018-12-09T20:29:17.219Z,3.00
2018-12-09T20:31:54.370Z,2.63
2018-12-09T20:34:27.599Z,4.87
2018-12-09T20:37:04.031Z,6.30
2018-12-09T20:39:40.627Z,3.77
2018-12-09T20:42:13.608Z,4.37
2018-12-09T20:44:46.925Z,4.47
2018-12-09T20:47:21.083Z,3.53
2018-12-09T20:49:57.552Z,3.03
2018-12-09T20:52:30.725Z,2.40
2018-12-09T20:55:07.698Z,2.10
2018-12-09T20:57:40.327Z,2.07
2018-12-09T21:00:22.244Z,2.40
2018-12-09T21:02:54.930Z,2.17
2018-12-09T21:05:28.022Z,2.07
2018-12-09T21:08:01.050Z,2.63
2018-12-09T21:10:34.128Z,2.67
2018-12-09T21:13:07.222Z,3.10
2018-12-09T21:15:40.191Z,2.60
2018-12-09T21:18:13.294Z,2.50
2018-12-09T21:20:46.426Z,4.60
2018-12-09T21:23:26.527Z,3.23
2018-12-09T21:25:59.636Z,5.07
2018-12-09T21:28:36.854Z,3.90
2018-12-09T21:31:09.464Z,2.53
2018-12-09T21:33:45.658Z,2.37
2018-12-09T21:36:22.675Z,2.80
2018-12-09T21:38:55.207Z,4.17
2018-12-09T21:41:27.559Z,2.77
2018-12-09T21:43:59.740Z,1.90
2018-12-09T21:46:32.098Z,2.60
2018-12-09T21:49:05.011Z,3.13
2018-12-09T21:51:42.490Z,2.57
2018-12-09T21:54:20.118Z,2.20
2018-12-09T21:56:52.477Z,2.20
2018-12-09T21:59:29.451Z,2.00
2018-12-09T22:02:01.653Z,2.27
2018-12-09T22:04:33.859Z,3.13
2018-12-09T22:07:06.269Z,2.87
2018-12-09T22:09:38.943Z,2.67
2018-12-09T22:12:11.962Z,3.07
2018-12-09T22:14:44.982Z,2.13
2018-12-09T22:17:18.217Z,2.20
2018-12-09T22:19:51.190Z,2.00
2018-12-09T22:22:24.123Z,2.20
2018-12-09T22:24:57.134Z,2.43
2018-12-09T22:27:30.051Z,2.00
2018-12-09T22:30:03.177Z,2.93
2018-12-09T22:32:36.085Z,2.40
2018-12-09T22:35:09.290Z,2.10
2018-12-09T22:37:42.301Z,2.30
2018-12-09T22:40:15.330Z,2.27
2018-12-09T22:42:47.701Z,2.33
2018-12-09T22:45:20.585Z,1.93
2018-12-09T22:47:52.930Z,2.30
2018-12-09T22:50:25.259Z,2.10
2018-12-09T22:53:01.626Z,2.37
2018-12-09T22:55:34.410Z,3.00
2018-12-09T23:03:07.838Z,2.20
2018-12-09T23:05:44.762Z,2.10
2018-12-09T23:08:16.979Z,2.60
2018-12-09T23:10:54.010Z,2.30
2018-12-09T23:13:26.442Z,2.20
2018-12-09T23:15:59.610Z,1.70
2018-12-09T23:18:33.746Z,2.13
2018-12-09T23:21:06.876Z,1.87
2018-12-09T23:23:43.925Z,1.77
2018-12-09T23:26:16.935Z,2.17
2018-12-09T23:28:49.222Z,1.77
2018-12-09T23:31:22.130Z,1.77
2018-12-09T23:33:54.332Z,1.67
2018-12-09T23:36:26.696Z,1.40
2018-12-09T23:39:04.726Z,2.20
2018-12-09T23:41:40.922Z,1.90
2018-12-09T23:44:14.091Z,1.80
2018-12-09T23:46:47.102Z,1.83
2018-12-09T23:49:20.063Z,1.40
2018-12-09T23:51:53.157Z,1.60
2018-12-09T23:54:26.250Z,1.63
2018-12-09T23:57:03.454Z,1.57
2018-12-09T23:59:36.338Z,2.10
